Ru Kontio — OIRV — position and weather

sailwx.info

Track history (hours):
 
Tides and Currents Weather Stations Pressure Air Temp Water Temp Dewpoint Dewpoint Depression Visibility Wind Speed Wind Dir Waves Ship Positions

Ru Kontio

Last reported at 2016-Dec-16 22:14 UTC. Time now 2017-Jan-22 22:21 UTC.
Position N 59°57' E 021°41'.
Warning: this ship's position is 37 days out of date.

Type: Other ship. MMSI: 230251000.

Date/timePositionNaut miles runAvg speedWind from/ knotsBaromVisibWave heightAir tempDewpointWater temp
2016-Dec-16 22:14N 59°57' E 021°41'912.6
2016-Dec-16 21:33N 59°52' E 021°27'1111.4
2016-Dec-16 20:33N 59°41' E 021°20'1211.7
2016-Dec-16 19:33N 59°32' E 021°34'1212.3
2016-Dec-16 18:33N 59°32' E 021°59'1211.9
2016-Dec-16 17:33N 59°34' E 022°22'22 9.3
2016-Dec-16 15:13N 59°38' E 023°04'5 6.7
2016-Dec-16 14:29N 59°39' E 023°14'1010.7
2016-Dec-16 13:33N 59°41' E 023°33'10 9.9
2016-Dec-16 12:33N 59°44' E 023°52'42 4.7
2016-Dec-16 03:31N 60°10' E 024°58'0 0.0
2016-Dec-16 02:31N 60°10' E 024°58'0 0.0
2016-Dec-16 01:31N 60°10' E 024°58'0 0.0
2016-Dec-16 00:28N 60°10' E 024°58'0 0.0
2016-Dec-15 23:31N 60°10' E 024°58'0 0.0
2016-Dec-15 22:31N 60°10' E 024°58'0 0.0
2016-Dec-15 21:31N 60°10' E 024°58'0 0.0
2016-Dec-15 20:31N 60°10' E 024°58'0 0.0
2016-Dec-15 19:31N 60°10' E 024°58'0 0.0
2016-Dec-15 18:31N 60°10' E 024°58'0 0.0
2016-Dec-15 17:31N 60°10' E 024°58'0 0.0
2016-Dec-15 16:31N 60°10' E 024°58'0 0.0
2016-Dec-15 15:31N 60°10' E 024°58'0 0.0
2016-Dec-15 14:31N 60°10' E 024°58'0 0.0
2016-Dec-15 13:31N 60°10' E 024°58'0 0.0
2016-Dec-15 12:31N 60°10' E 024°58'0 0.0
2016-Dec-15 11:31N 60°10' E 024°58'0 0.0
2016-Dec-15 10:31N 60°10' E 024°58'0 0.0
2016-Dec-15 09:31N 60°10' E 024°58'0 0.0
2016-Dec-15 08:31N 60°10' E 024°58'0 0.0
2016-Dec-15 07:31N 60°10' E 024°58'0 0.0
2016-Dec-15 06:31N 60°10' E 024°58'0 0.0
2016-Dec-15 05:31N 60°10' E 024°58'0 0.0
2016-Dec-15 04:31N 60°10' E 024°58'0 0.0
2016-Dec-15 03:31N 60°10' E 024°58'0 0.0
2016-Dec-15 02:31N 60°10' E 024°58'0 0.0
2016-Dec-15 01:31N 60°10' E 024°58'0 0.0
2016-Dec-15 00:31N 60°10' E 024°58'0 0.0
2016-Dec-14 23:31N 60°10' E 024°58'0 0.0
2016-Dec-14 22:31N 60°10' E 024°58'0 0.0
2016-Dec-14 21:31N 60°10' E 024°58'0 0.0
2016-Dec-14 20:31N 60°10' E 024°58'0 0.0
2016-Dec-14 19:31N 60°10' E 024°58'0 0.0
2016-Dec-14 18:31N 60°10' E 024°58'0 0.0
2016-Dec-14 17:31N 60°10' E 024°58'0 0.0
2016-Dec-14 16:31N 60°10' E 024°58'0 0.0
2016-Dec-14 15:31N 60°10' E 024°58'0 0.0
2016-Dec-14 14:31N 60°10' E 024°58'0 0.0
2016-Dec-14 13:31N 60°10' E 024°58'0 0.0
2016-Dec-14 12:31N 60°10' E 024°58'0 0.0
2016-Dec-14 11:28N 60°10' E 024°58'0 0.0
2016-Dec-14 10:31N 60°10' E 024°58'0 0.0
2016-Dec-14 09:31N 60°10' E 024°58'1 1.0
2016-Dec-14 08:33N 60°10' E 025°00'0 0.2
2016-Dec-14 07:33N 60°09' E 025°00'1 1.1
2016-Dec-14 06:34N 60°10' E 024°58'0 0.0
2016-Dec-14 05:33N 60°10' E 024°58'0 0.0
2016-Dec-14 04:34N 60°10' E 024°58'0 0.0
2016-Dec-14 03:33N 60°10' E 024°58'0 0.0
2016-Dec-14 02:34N 60°10' E 024°58'0 0.0
2016-Dec-14 01:34N 60°10' E 024°58'0 0.0
2016-Dec-14 00:33N 60°10' E 024°58'0 0.0
2016-Dec-13 23:33N 60°10' E 024°58'0 0.0
2016-Dec-13 22:34N 60°10' E 024°58'0 0.0
2016-Dec-13 21:33N 60°10' E 024°58'0 0.0
2016-Dec-13 20:34N 60°10' E 024°58'0 0.0
2016-Dec-13 19:33N 60°10' E 024°58'0 0.0
2016-Dec-13 18:33N 60°10' E 024°58'0 0.0
2016-Dec-13 17:34N 60°10' E 024°58'0 0.0
2016-Dec-13 16:33N 60°10' E 024°58'0 0.0
2016-Dec-13 15:33N 60°10' E 024°58'0 0.0
2016-Dec-13 14:34N 60°10' E 024°58'0 0.0
2016-Dec-13 13:33N 60°10' E 024°58'0 0.0
2016-Dec-13 12:33N 60°10' E 024°58'0 0.0
2016-Dec-13 11:33N 60°10' E 024°58'0 0.0
2016-Dec-13 10:33N 60°10' E 024°58'0 0.0
2016-Dec-13 09:34N 60°10' E 024°58'0 0.0
2016-Dec-13 08:33N 60°10' E 024°58'0 0.0
2016-Dec-13 07:33N 60°10' E 024°58'0 0.0
2016-Dec-13 06:33N 60°10' E 024°58'0 0.0
2016-Dec-13 05:33N 60°10' E 024°58'0 0.0
2016-Dec-13 04:33N 60°10' E 024°58'0 0.0
2016-Dec-13 03:33N 60°10' E 024°58'0 0.0
2016-Dec-13 02:33N 60°10' E 024°58'0 0.0
2016-Dec-13 01:34N 60°10' E 024°58'0 0.0
2016-Dec-13 00:34N 60°10' E 024°58'0 0.0
2016-Dec-12 23:33N 60°10' E 024°58'0 0.0
2016-Dec-12 22:33N 60°10' E 024°58'0 0.0
2016-Dec-12 21:33N 60°10' E 024°58'0 0.0
2016-Dec-12 20:33N 60°10' E 024°58'0 0.0
2016-Dec-12 19:34N 60°10' E 024°58'0 0.0
2016-Dec-12 18:33N 60°10' E 024°58'0 0.0
2016-Dec-12 17:34N 60°10' E 024°58'0 0.0
2016-Dec-12 16:33N 60°10' E 024°58'0 0.0
2016-Dec-12 15:33N 60°10' E 024°58'0 0.0
2016-Dec-12 14:33N 60°10' E 024°58'0 0.0
2016-Dec-12 13:33N 60°10' E 024°58'0 0.0
2016-Dec-12 12:33N 60°10' E 024°58'0 0.0
2016-Dec-12 11:33N 60°10' E 024°58'0 0.0
2016-Dec-12 10:33N 60°10' E 024°58'0 0.0
2016-Dec-12 09:33N 60°10' E 024°58'0 0.0
2016-Dec-12 08:33N 60°10' E 024°58'0 0.0
2016-Dec-12 07:33N 60°10' E 024°58'0 0.0
2016-Dec-12 06:33N 60°10' E 024°58'0 0.0
2016-Dec-12 05:33N 60°10' E 024°58'0 0.0
2016-Dec-12 04:33N 60°10' E 024°58'0 0.0
2016-Dec-12 03:34N 60°10' E 024°58'0 0.0
2016-Dec-12 02:34N 60°10' E 024°58'0 0.0
2016-Dec-12 01:33N 60°10' E 024°58'0 0.0
2016-Dec-12 00:33N 60°10' E 024°58'0 0.0
2016-Dec-11 23:34N 60°10' E 024°58'0 0.0
2016-Dec-11 22:33N 60°10' E 024°58'0 0.0
2016-Dec-11 21:34N 60°10' E 024°58'0 0.0
2016-Dec-11 20:33N 60°10' E 024°58'0 0.0
2016-Dec-11 19:33N 60°10' E 024°58'0 0.0
2016-Dec-11 18:33N 60°10' E 024°58'0 0.0
2016-Dec-11 17:33N 60°10' E 024°58'0 0.0
2016-Dec-11 16:33N 60°10' E 024°58'0 0.0
2016-Dec-11 15:34N 60°10' E 024°58'0 0.0
2016-Dec-11 14:33N 60°10' E 024°58'0 0.0
2016-Dec-11 13:33N 60°10' E 024°58'0 0.0
2016-Dec-11 12:34N 60°10' E 024°58'0 0.0
2016-Dec-11 11:33N 60°10' E 024°58'0 0.0
2016-Dec-11 10:33N 60°10' E 024°58'0 0.0
2016-Dec-11 09:33N 60°10' E 024°58'0 0.0
2016-Dec-11 08:34N 60°10' E 024°58'0 0.0
2016-Dec-11 07:34N 60°10' E 024°58'0 0.0
2016-Dec-11 06:33N 60°10' E 024°58'0 0.0
2016-Dec-11 05:33N 60°10' E 024°58'0 0.0
2016-Dec-11 04:34N 60°10' E 024°58'0 0.0
2016-Dec-11 03:33N 60°10' E 024°58'0 0.0
2016-Dec-11 02:33N 60°10' E 024°58'0 0.0
2016-Dec-11 01:33N 60°10' E 024°58'0 0.0
2016-Dec-11 00:33N 60°10' E 024°58'0 0.0
2016-Dec-10 23:34N 60°10' E 024°58'0 0.0
2016-Dec-10 22:34N 60°10' E 024°58'0 0.0
2016-Dec-10 21:34N 60°10' E 024°58'0 0.0
2016-Dec-10 20:33N 60°10' E 024°58'0 0.0
2016-Dec-10 19:34N 60°10' E 024°58'0 0.0
2016-Dec-10 18:33N 60°10' E 024°58'0 0.0
2016-Dec-10 17:33N 60°10' E 024°58'0 0.0
2016-Dec-10 16:34N 60°10' E 024°58'0 0.0
2016-Dec-10 15:34N 60°10' E 024°58'0 0.0
2016-Dec-10 14:33N 60°10' E 024°58'0 0.0
2016-Dec-10 13:33N 60°10' E 024°58'0 0.0
2016-Dec-10 12:33N 60°10' E 024°58'0 0.0
2016-Dec-10 11:34N 60°10' E 024°58'0 0.0
2016-Dec-10 10:33N 60°10' E 024°58'0 0.0
2016-Dec-10 09:33N 60°10' E 024°58'0 0.0
2016-Dec-10 08:33N 60°10' E 024°58'0 0.0
2016-Dec-10 07:33N 60°10' E 024°58'0 0.0
2016-Dec-10 06:34N 60°10' E 024°58'0 0.0
2016-Dec-10 05:33N 60°10' E 024°58'0 0.0
2016-Dec-10 04:33N 60°10' E 024°58'0 0.0
2016-Dec-10 03:33N 60°10' E 024°58'0 0.0
2016-Dec-10 02:33N 60°10' E 024°58'0 0.0
2016-Dec-10 01:33N 60°10' E 024°58'0 0.0
2016-Dec-10 00:33N 60°10' E 024°58'0 0.0
2016-Dec-09 23:33N 60°10' E 024°58'0 0.0
2016-Dec-09 22:33N 60°10' E 024°58'0 0.0
2016-Dec-09 21:33N 60°10' E 024°58'0 0.0
2016-Dec-09 20:33N 60°10' E 024°58'0 0.0
2016-Dec-09 19:33N 60°10' E 024°58'0 0.0
2016-Dec-09 18:33N 60°10' E 024°58'0 0.0
2016-Dec-09 17:34N 60°10' E 024°58'0 0.0
2016-Dec-09 16:33N 60°10' E 024°58'0 0.0
2016-Dec-09 15:33N 60°10' E 024°58'0 0.0
2016-Dec-09 14:33N 60°10' E 024°58'0 0.0
2016-Dec-09 13:33N 60°10' E 024°58'0 0.0
2016-Dec-09 12:34N 60°10' E 024°58'0 0.0
2016-Dec-09 11:33N 60°10' E 024°58'0 0.0
2016-Dec-09 10:34N 60°10' E 024°58'0 0.0
2016-Dec-09 09:34N 60°10' E 024°58'0 0.0
2016-Dec-09 08:34N 60°10' E 024°58'0 0.0
2016-Dec-09 07:33N 60°10' E 024°58'0 0.0
2016-Dec-09 06:34N 60°10' E 024°58'0 0.0
2016-Dec-09 05:33N 60°10' E 024°58'0 0.0
2016-Dec-09 04:33N 60°10' E 024°58'0 0.0
2016-Dec-09 03:33N 60°10' E 024°58'0 0.0
2016-Dec-09 02:33N 60°10' E 024°58'0 0.0
2016-Dec-09 01:34N 60°10' E 024°58'0 0.0
2016-Dec-09 00:33N 60°10' E 024°58'0 0.0
2016-Dec-08 23:33N 60°10' E 024°58'0 0.0
2016-Dec-08 22:34N 60°10' E 024°58'0 0.0
2016-Dec-08 21:33N 60°10' E 024°58'0 0.0
2016-Dec-08 20:34N 60°10' E 024°58'0 0.0
2016-Dec-08 19:33N 60°10' E 024°58'0 0.0
2016-Dec-08 18:34N 60°10' E 024°58'0 0.0
2016-Dec-08 17:33N 60°10' E 024°58'0 0.0
2016-Dec-08 16:34N 60°10' E 024°58'0 0.0
2016-Dec-08 15:34N 60°10' E 024°58'0 0.0
2016-Dec-08 14:33N 60°10' E 024°58'0 0.0
2016-Dec-08 13:33N 60°10' E 024°58'0 0.0
2016-Dec-08 12:33N 60°10' E 024°58'0 0.0
2016-Dec-08 10:04N 60°10' E 024°58'  
Track history (hours):
 
Tides and Currents Weather Stations Pressure Air Temp Water Temp Dewpoint Dewpoint Depression Visibility Wind Speed Wind Dir Waves Ship Positions

Ru Kontio

Last reported at 2016-Dec-16 22:14 UTC. Time now 2017-Jan-22 22:21 UTC.
Position N 59°57' E 021°41'.
Warning: this ship's position is 37 days out of date.

Type: Other ship. MMSI: 230251000.

Date/timePositionNaut miles runAvg speedWind from/ knotsBaromVisibWave heightAir tempDewpointWater temp
2016-Dec-16 22:14N 59°57' E 021°41'912.6
2016-Dec-16 21:33N 59°52' E 021°27'1111.4
2016-Dec-16 20:33N 59°41' E 021°20'1211.7
2016-Dec-16 19:33N 59°32' E 021°34'1212.3
2016-Dec-16 18:33N 59°32' E 021°59'1211.9
2016-Dec-16 17:33N 59°34' E 022°22'22 9.3
2016-Dec-16 15:13N 59°38' E 023°04'5 6.7
2016-Dec-16 14:29N 59°39' E 023°14'1010.7
2016-Dec-16 13:33N 59°41' E 023°33'10 9.9
2016-Dec-16 12:33N 59°44' E 023°52'42 4.7
2016-Dec-16 03:31N 60°10' E 024°58'0 0.0
2016-Dec-16 02:31N 60°10' E 024°58'0 0.0
2016-Dec-16 01:31N 60°10' E 024°58'0 0.0
2016-Dec-16 00:28N 60°10' E 024°58'0 0.0
2016-Dec-15 23:31N 60°10' E 024°58'0 0.0
2016-Dec-15 22:31N 60°10' E 024°58'0 0.0
2016-Dec-15 21:31N 60°10' E 024°58'0 0.0
2016-Dec-15 20:31N 60°10' E 024°58'0 0.0
2016-Dec-15 19:31N 60°10' E 024°58'0 0.0
2016-Dec-15 18:31N 60°10' E 024°58'0 0.0
2016-Dec-15 17:31N 60°10' E 024°58'0 0.0
2016-Dec-15 16:31N 60°10' E 024°58'0 0.0
2016-Dec-15 15:31N 60°10' E 024°58'0 0.0
2016-Dec-15 14:31N 60°10' E 024°58'0 0.0
2016-Dec-15 13:31N 60°10' E 024°58'0 0.0
2016-Dec-15 12:31N 60°10' E 024°58'0 0.0
2016-Dec-15 11:31N 60°10' E 024°58'0 0.0
2016-Dec-15 10:31N 60°10' E 024°58'0 0.0
2016-Dec-15 09:31N 60°10' E 024°58'0 0.0
2016-Dec-15 08:31N 60°10' E 024°58'0 0.0
2016-Dec-15 07:31N 60°10' E 024°58'0 0.0
2016-Dec-15 06:31N 60°10' E 024°58'0 0.0
2016-Dec-15 05:31N 60°10' E 024°58'0 0.0
2016-Dec-15 04:31N 60°10' E 024°58'0 0.0
2016-Dec-15 03:31N 60°10' E 024°58'0 0.0
2016-Dec-15 02:31N 60°10' E 024°58'0 0.0
2016-Dec-15 01:31N 60°10' E 024°58'0 0.0
2016-Dec-15 00:31N 60°10' E 024°58'0 0.0
2016-Dec-14 23:31N 60°10' E 024°58'0 0.0
2016-Dec-14 22:31N 60°10' E 024°58'0 0.0
2016-Dec-14 21:31N 60°10' E 024°58'0 0.0
2016-Dec-14 20:31N 60°10' E 024°58'0 0.0
2016-Dec-14 19:31N 60°10' E 024°58'0 0.0
2016-Dec-14 18:31N 60°10' E 024°58'0 0.0
2016-Dec-14 17:31N 60°10' E 024°58'0 0.0
2016-Dec-14 16:31N 60°10' E 024°58'0 0.0
2016-Dec-14 15:31N 60°10' E 024°58'0 0.0
2016-Dec-14 14:31N 60°10' E 024°58'0 0.0
2016-Dec-14 13:31N 60°10' E 024°58'0 0.0
2016-Dec-14 12:31N 60°10' E 024°58'0 0.0
2016-Dec-14 11:28N 60°10' E 024°58'0 0.0
2016-Dec-14 10:31N 60°10' E 024°58'0 0.0
2016-Dec-14 09:31N 60°10' E 024°58'1 1.0
2016-Dec-14 08:33N 60°10' E 025°00'0 0.2
2016-Dec-14 07:33N 60°09' E 025°00'1 1.1
2016-Dec-14 06:34N 60°10' E 024°58'0 0.0
2016-Dec-14 05:33N 60°10' E 024°58'0 0.0
2016-Dec-14 04:34N 60°10' E 024°58'0 0.0
2016-Dec-14 03:33N 60°10' E 024°58'0 0.0
2016-Dec-14 02:34N 60°10' E 024°58'0 0.0
2016-Dec-14 01:34N 60°10' E 024°58'0 0.0
2016-Dec-14 00:33N 60°10' E 024°58'0 0.0
2016-Dec-13 23:33N 60°10' E 024°58'0 0.0
2016-Dec-13 22:34N 60°10' E 024°58'0 0.0
2016-Dec-13 21:33N 60°10' E 024°58'0 0.0
2016-Dec-13 20:34N 60°10' E 024°58'0 0.0
2016-Dec-13 19:33N 60°10' E 024°58'0 0.0
2016-Dec-13 18:33N 60°10' E 024°58'0 0.0
2016-Dec-13 17:34N 60°10' E 024°58'0 0.0
2016-Dec-13 16:33N 60°10' E 024°58'0 0.0
2016-Dec-13 15:33N 60°10' E 024°58'0 0.0
2016-Dec-13 14:34N 60°10' E 024°58'0 0.0
2016-Dec-13 13:33N 60°10' E 024°58'0 0.0
2016-Dec-13 12:33N 60°10' E 024°58'0 0.0
2016-Dec-13 11:33N 60°10' E 024°58'0 0.0
2016-Dec-13 10:33N 60°10' E 024°58'0 0.0
2016-Dec-13 09:34N 60°10' E 024°58'0 0.0
2016-Dec-13 08:33N 60°10' E 024°58'0 0.0
2016-Dec-13 07:33N 60°10' E 024°58'0 0.0
2016-Dec-13 06:33N 60°10' E 024°58'0 0.0
2016-Dec-13 05:33N 60°10' E 024°58'0 0.0
2016-Dec-13 04:33N 60°10' E 024°58'0 0.0
2016-Dec-13 03:33N 60°10' E 024°58'0 0.0
2016-Dec-13 02:33N 60°10' E 024°58'0 0.0
2016-Dec-13 01:34N 60°10' E 024°58'0 0.0
2016-Dec-13 00:34N 60°10' E 024°58'0 0.0
2016-Dec-12 23:33N 60°10' E 024°58'0 0.0
2016-Dec-12 22:33N 60°10' E 024°58'0 0.0
2016-Dec-12 21:33N 60°10' E 024°58'0 0.0
2016-Dec-12 20:33N 60°10' E 024°58'0 0.0
2016-Dec-12 19:34N 60°10' E 024°58'0 0.0
2016-Dec-12 18:33N 60°10' E 024°58'0 0.0
2016-Dec-12 17:34N 60°10' E 024°58'0 0.0
2016-Dec-12 16:33N 60°10' E 024°58'0 0.0
2016-Dec-12 15:33N 60°10' E 024°58'0 0.0
2016-Dec-12 14:33N 60°10' E 024°58'0 0.0
2016-Dec-12 13:33N 60°10' E 024°58'0 0.0
2016-Dec-12 12:33N 60°10' E 024°58'0 0.0
2016-Dec-12 11:33N 60°10' E 024°58'0 0.0
2016-Dec-12 10:33N 60°10' E 024°58'0 0.0
2016-Dec-12 09:33N 60°10' E 024°58'0 0.0
2016-Dec-12 08:33N 60°10' E 024°58'0 0.0
2016-Dec-12 07:33N 60°10' E 024°58'0 0.0
2016-Dec-12 06:33N 60°10' E 024°58'0 0.0
2016-Dec-12 05:33N 60°10' E 024°58'0 0.0
2016-Dec-12 04:33N 60°10' E 024°58'0 0.0
2016-Dec-12 03:34N 60°10' E 024°58'0 0.0
2016-Dec-12 02:34N 60°10' E 024°58'0 0.0
2016-Dec-12 01:33N 60°10' E 024°58'0 0.0
2016-Dec-12 00:33N 60°10' E 024°58'0 0.0
2016-Dec-11 23:34N 60°10' E 024°58'0 0.0
2016-Dec-11 22:33N 60°10' E 024°58'0 0.0
2016-Dec-11 21:34N 60°10' E 024°58'0 0.0
2016-Dec-11 20:33N 60°10' E 024°58'0 0.0
2016-Dec-11 19:33N 60°10' E 024°58'0 0.0
2016-Dec-11 18:33N 60°10' E 024°58'0 0.0
2016-Dec-11 17:33N 60°10' E 024°58'0 0.0
2016-Dec-11 16:33N 60°10' E 024°58'0 0.0
2016-Dec-11 15:34N 60°10' E 024°58'0 0.0
2016-Dec-11 14:33N 60°10' E 024°58'0 0.0
2016-Dec-11 13:33N 60°10' E 024°58'0 0.0
2016-Dec-11 12:34N 60°10' E 024°58'0 0.0
2016-Dec-11 11:33N 60°10' E 024°58'0 0.0
2016-Dec-11 10:33N 60°10' E 024°58'0 0.0
2016-Dec-11 09:33N 60°10' E 024°58'0 0.0
2016-Dec-11 08:34N 60°10' E 024°58'0 0.0
2016-Dec-11 07:34N 60°10' E 024°58'0 0.0
2016-Dec-11 06:33N 60°10' E 024°58'0 0.0
2016-Dec-11 05:33N 60°10' E 024°58'0 0.0
2016-Dec-11 04:34N 60°10' E 024°58'0 0.0
2016-Dec-11 03:33N 60°10' E 024°58'0 0.0
2016-Dec-11 02:33N 60°10' E 024°58'0 0.0
2016-Dec-11 01:33N 60°10' E 024°58'0 0.0
2016-Dec-11 00:33N 60°10' E 024°58'0 0.0
2016-Dec-10 23:34N 60°10' E 024°58'0 0.0
2016-Dec-10 22:34N 60°10' E 024°58'0 0.0
2016-Dec-10 21:34N 60°10' E 024°58'0 0.0
2016-Dec-10 20:33N 60°10' E 024°58'0 0.0
2016-Dec-10 19:34N 60°10' E 024°58'0 0.0
2016-Dec-10 18:33N 60°10' E 024°58'0 0.0
2016-Dec-10 17:33N 60°10' E 024°58'0 0.0
2016-Dec-10 16:34N 60°10' E 024°58'0 0.0
2016-Dec-10 15:34N 60°10' E 024°58'0 0.0
2016-Dec-10 14:33N 60°10' E 024°58'0 0.0
2016-Dec-10 13:33N 60°10' E 024°58'0 0.0
2016-Dec-10 12:33N 60°10' E 024°58'0 0.0
2016-Dec-10 11:34N 60°10' E 024°58'0 0.0
2016-Dec-10 10:33N 60°10' E 024°58'0 0.0
2016-Dec-10 09:33N 60°10' E 024°58'0 0.0
2016-Dec-10 08:33N 60°10' E 024°58'0 0.0
2016-Dec-10 07:33N 60°10' E 024°58'0 0.0
2016-Dec-10 06:34N 60°10' E 024°58'0 0.0
2016-Dec-10 05:33N 60°10' E 024°58'0 0.0
2016-Dec-10 04:33N 60°10' E 024°58'0 0.0
2016-Dec-10 03:33N 60°10' E 024°58'0 0.0
2016-Dec-10 02:33N 60°10' E 024°58'0 0.0
2016-Dec-10 01:33N 60°10' E 024°58'0 0.0
2016-Dec-10 00:33N 60°10' E 024°58'0 0.0
2016-Dec-09 23:33N 60°10' E 024°58'0 0.0
2016-Dec-09 22:33N 60°10' E 024°58'0 0.0
2016-Dec-09 21:33N 60°10' E 024°58'0 0.0
2016-Dec-09 20:33N 60°10' E 024°58'0 0.0
2016-Dec-09 19:33N 60°10' E 024°58'0 0.0
2016-Dec-09 18:33N 60°10' E 024°58'0 0.0
2016-Dec-09 17:34N 60°10' E 024°58'0 0.0
2016-Dec-09 16:33N 60°10' E 024°58'0 0.0
2016-Dec-09 15:33N 60°10' E 024°58'0 0.0
2016-Dec-09 14:33N 60°10' E 024°58'0 0.0
2016-Dec-09 13:33N 60°10' E 024°58'0 0.0
2016-Dec-09 12:34N 60°10' E 024°58'0 0.0
2016-Dec-09 11:33N 60°10' E 024°58'0 0.0
2016-Dec-09 10:34N 60°10' E 024°58'0 0.0
2016-Dec-09 09:34N 60°10' E 024°58'0 0.0
2016-Dec-09 08:34N 60°10' E 024°58'0 0.0
2016-Dec-09 07:33N 60°10' E 024°58'0 0.0
2016-Dec-09 06:34N 60°10' E 024°58'0 0.0
2016-Dec-09 05:33N 60°10' E 024°58'0 0.0
2016-Dec-09 04:33N 60°10' E 024°58'0 0.0
2016-Dec-09 03:33N 60°10' E 024°58'0 0.0
2016-Dec-09 02:33N 60°10' E 024°58'0 0.0
2016-Dec-09 01:34N 60°10' E 024°58'0 0.0
2016-Dec-09 00:33N 60°10' E 024°58'0 0.0
2016-Dec-08 23:33N 60°10' E 024°58'0 0.0
2016-Dec-08 22:34N 60°10' E 024°58'0 0.0
2016-Dec-08 21:33N 60°10' E 024°58'0 0.0
2016-Dec-08 20:34N 60°10' E 024°58'0 0.0
2016-Dec-08 19:33N 60°10' E 024°58'0 0.0
2016-Dec-08 18:34N 60°10' E 024°58'0 0.0
2016-Dec-08 17:33N 60°10' E 024°58'0 0.0
2016-Dec-08 16:34N 60°10' E 024°58'0 0.0
2016-Dec-08 15:34N 60°10' E 024°58'0 0.0
2016-Dec-08 14:33N 60°10' E 024°58'0 0.0
2016-Dec-08 13:33N 60°10' E 024°58'0 0.0
2016-Dec-08 12:33N 60°10' E 024°58'0 0.0
2016-Dec-08 10:04N 60°10' E 024°58'  

Dump ship's entire track history